sensor_id;sensor_type;location;lat;lon;timestamp;P1;durP1;ratioP1;P2;durP2;ratioP2
35675;SDS011;21790;42.668;23.298;2022-07-22T00:55:08;5.93;;;3.40;;
35675;SDS011;21790;42.668;23.298;2022-07-22T06:50:43;7.05;;;4.28;;
35675;SDS011;21790;42.668;23.298;2022-07-22T06:59:49;10.00;;;4.47;;
35675;SDS011;21790;42.668;23.298;2022-07-22T07:02:25;9.43;;;4.53;;
35675;SDS011;21790;42.668;23.298;2022-07-22T07:04:53;20.60;;;4.63;;
35675;SDS011;21790;42.668;23.298;2022-07-22T07:07:20;12.10;;;4.38;;
35675;SDS011;21790;42.668;23.298;2022-07-22T07:12:44;10.68;;;5.10;;
35675;SDS011;21790;42.668;23.298;2022-07-22T07:15:28;8.85;;;4.45;;
35675;SDS011;21790;42.668;23.298;2022-07-22T07:24:13;9.90;;;4.05;;
35675;SDS011;21790;42.668;23.298;2022-07-22T07:29:42;7.55;;;3.78;;
35675;SDS011;21790;42.668;23.298;2022-07-22T07:35:40;15.10;;;4.18;;
35675;SDS011;21790;42.668;23.298;2022-07-22T07:44:13;13.38;;;4.30;;
35675;SDS011;21790;42.668;23.298;2022-07-22T07:46:39;10.05;;;4.30;;
35675;SDS011;21790;42.668;23.298;2022-07-22T07:49:13;11.52;;;4.43;;
35675;SDS011;21790;42.668;23.298;2022-07-22T07:51:40;21.13;;;13.05;;
35675;SDS011;21790;42.668;23.298;2022-07-22T07:54:06;29.25;;;13.90;;
35675;SDS011;21790;42.668;23.298;2022-07-22T07:56:33;13.32;;;4.82;;
35675;SDS011;21790;42.668;23.298;2022-07-22T07:58:58;19.42;;;3.88;;
35675;SDS011;21790;42.668;23.298;2022-07-22T08:01:33;7.40;;;3.70;;
35675;SDS011;21790;42.668;23.298;2022-07-22T08:03:58;12.90;;;3.67;;
35675;SDS011;21790;42.668;23.298;2022-07-22T08:06:24;8.68;;;3.92;;
35675;SDS011;21790;42.668;23.298;2022-07-22T08:08:49;6.57;;;3.22;;
35675;SDS011;21790;42.668;23.298;2022-07-22T08:11:17;4.53;;;3.25;;
35675;SDS011;21790;42.668;23.298;2022-07-22T08:13:42;10.25;;;4.20;;
35675;SDS011;21790;42.668;23.298;2022-07-22T08:16:08;14.35;;;3.90;;
35675;SDS011;21790;42.668;23.298;2022-07-22T08:18:34;10.18;;;3.58;;
35675;SDS011;21790;42.668;23.298;2022-07-22T08:20:59;8.63;;;3.60;;
35675;SDS011;21790;42.668;23.298;2022-07-22T08:23:25;9.18;;;4.35;;
35675;SDS011;21790;42.668;23.298;2022-07-22T08:25:51;11.48;;;3.15;;
35675;SDS011;21790;42.668;23.298;2022-07-22T08:28:16;10.65;;;3.47;;
35675;SDS011;21790;42.668;23.298;2022-07-22T08:30:42;7.13;;;3.40;;
35675;SDS011;21790;42.668;23.298;2022-07-22T08:33:08;8.95;;;3.47;;
35675;SDS011;21790;42.668;23.298;2022-07-22T08:35:34;11.05;;;3.85;;
35675;SDS011;21790;42.668;23.298;2022-07-22T08:38:00;5.78;;;3.22;;
35675;SDS011;21790;42.668;23.298;2022-07-22T08:40:25;3.17;;;2.47;;
35675;SDS011;21790;42.668;23.298;2022-07-22T08:42:51;6.60;;;3.28;;
35675;SDS011;21790;42.668;23.298;2022-07-22T08:45:17;7.18;;;2.78;;
35675;SDS011;21790;42.668;23.298;2022-07-22T08:47:46;4.45;;;2.72;;
35675;SDS011;21790;42.668;23.298;2022-07-22T08:50:14;11.15;;;2.80;;
35675;SDS011;21790;42.668;23.298;2022-07-22T08:52:40;7.25;;;3.75;;
35675;SDS011;21790;42.668;23.298;2022-07-22T08:55:07;9.57;;;3.40;;
35675;SDS011;21790;42.668;23.298;2022-07-22T08:57:33;6.15;;;3.22;;
35675;SDS011;21790;42.668;23.298;2022-07-22T09:00:00;7.13;;;3.60;;
35675;SDS011;21790;42.668;23.298;2022-07-22T09:02:29;7.05;;;3.10;;
35675;SDS011;21790;42.668;23.298;2022-07-22T09:05:03;13.05;;;3.97;;
35675;SDS011;21790;42.668;23.298;2022-07-22T09:07:37;14.93;;;3.75;;
35675;SDS011;21790;42.668;23.298;2022-07-22T09:10:05;6.35;;;3.45;;
35675;SDS011;21790;42.668;23.298;2022-07-22T09:12:34;9.32;;;3.60;;
35675;SDS011;21790;42.668;23.298;2022-07-22T09:15:32;4.93;;;3.20;;
35675;SDS011;21790;42.668;23.298;2022-07-22T09:18:01;7.38;;;3.35;;
35675;SDS011;21790;42.668;23.298;2022-07-22T09:20:27;7.38;;;4.05;;
35675;SDS011;21790;42.668;23.298;2022-07-22T09:22:54;5.47;;;3.05;;
35675;SDS011;21790;42.668;23.298;2022-07-22T09:25:30;10.27;;;3.50;;
35675;SDS011;21790;42.668;23.298;2022-07-22T09:30:35;6.35;;;2.72;;
35675;SDS011;21790;42.668;23.298;2022-07-22T09:33:04;3.38;;;2.58;;
35675;SDS011;21790;42.668;23.298;2022-07-22T09:35:31;6.30;;;3.42;;
35675;SDS011;21790;42.668;23.298;2022-07-22T09:38:01;6.47;;;3.20;;
35675;SDS011;21790;42.668;23.298;2022-07-22T09:40:29;15.57;;;3.92;;
35675;SDS011;21790;42.668;23.298;2022-07-22T09:42:57;6.90;;;3.10;;
35675;SDS011;21790;42.668;23.298;2022-07-22T09:45:25;4.88;;;2.92;;
35675;SDS011;21790;42.668;23.298;2022-07-22T09:47:53;10.95;;;3.33;;
35675;SDS011;21790;42.668;23.298;2022-07-22T09:50:21;7.30;;;3.10;;
35675;SDS011;21790;42.668;23.298;2022-07-22T09:52:49;5.15;;;2.83;;
35675;SDS011;21790;42.668;23.298;2022-07-22T09:55:17;7.22;;;3.28;;
35675;SDS011;21790;42.668;23.298;2022-07-22T09:57:45;6.35;;;3.08;;
35675;SDS011;21790;42.668;23.298;2022-07-22T10:00:13;8.15;;;3.47;;
35675;SDS011;21790;42.668;23.298;2022-07-22T10:02:41;7.30;;;2.75;;
35675;SDS011;21790;42.668;23.298;2022-07-22T10:05:11;4.78;;;3.47;;
35675;SDS011;21790;42.668;23.298;2022-07-22T10:07:37;10.68;;;4.03;;
35675;SDS011;21790;42.668;23.298;2022-07-22T10:10:04;6.43;;;3.17;;
35675;SDS011;21790;42.668;23.298;2022-07-22T10:12:31;7.18;;;3.70;;
35675;SDS011;21790;42.668;23.298;2022-07-22T10:14:58;8.63;;;3.75;;
35675;SDS011;21790;42.668;23.298;2022-07-22T10:17:25;5.30;;;3.90;;
35675;SDS011;21790;42.668;23.298;2022-07-22T10:19:51;8.02;;;2.85;;
35675;SDS011;21790;42.668;23.298;2022-07-22T10:25:08;9.50;;;3.38;;
35675;SDS011;21790;42.668;23.298;2022-07-22T10:30:46;9.82;;;3.90;;
35675;SDS011;21790;42.668;23.298;2022-07-22T10:33:12;4.75;;;3.60;;
35675;SDS011;21790;42.668;23.298;2022-07-22T10:38:11;7.20;;;3.28;;
35675;SDS011;21790;42.668;23.298;2022-07-22T10:40:46;7.05;;;3.58;;
35675;SDS011;21790;42.668;23.298;2022-07-22T10:43:16;8.90;;;4.10;;
35675;SDS011;21790;42.668;23.298;2022-07-22T10:48:23;5.65;;;3.28;;
35675;SDS011;21790;42.668;23.298;2022-07-22T10:51:12;5.93;;;3.58;;
35675;SDS011;21790;42.668;23.298;2022-07-22T10:56:19;12.05;;;3.42;;
35675;SDS011;21790;42.668;23.298;2022-07-22T10:59:14;6.43;;;3.40;;
35675;SDS011;21790;42.668;23.298;2022-07-22T11:01:45;4.85;;;3.20;;
35675;SDS011;21790;42.668;23.298;2022-07-22T11:04:16;4.85;;;3.13;;
35675;SDS011;21790;42.668;23.298;2022-07-22T11:06:47;6.85;;;3.40;;
35675;SDS011;21790;42.668;23.298;2022-07-22T11:09:15;3.72;;;3.08;;
35675;SDS011;21790;42.668;23.298;2022-07-22T11:11:47;10.40;;;3.17;;
35675;SDS011;21790;42.668;23.298;2022-07-22T11:16:53;6.25;;;3.40;;
35675;SDS011;21790;42.668;23.298;2022-07-22T11:19:21;7.55;;;3.78;;
35675;SDS011;21790;42.668;23.298;2022-07-22T11:21:49;8.02;;;3.67;;
35675;SDS011;21790;42.668;23.298;2022-07-22T11:24:17;7.45;;;3.25;;
35675;SDS011;21790;42.668;23.298;2022-07-22T11:26:44;5.85;;;3.53;;
35675;SDS011;21790;42.668;23.298;2022-07-22T11:29:17;3.60;;;2.97;;
35675;SDS011;21790;42.668;23.298;2022-07-22T11:31:44;4.90;;;3.45;;
35675;SDS011;21790;42.668;23.298;2022-07-22T11:34:10;7.10;;;3.42;;
35675;SDS011;21790;42.668;23.298;2022-07-22T11:36:41;3.65;;;2.78;;
35675;SDS011;21790;42.668;23.298;2022-07-22T11:39:08;9.70;;;3.38;;
35675;SDS011;21790;42.668;23.298;2022-07-22T11:41:35;10.80;;;3.22;;
35675;SDS011;21790;42.668;23.298;2022-07-22T11:44:01;8.05;;;3.78;;
35675;SDS011;21790;42.668;23.298;2022-07-22T11:46:27;8.10;;;4.25;;
35675;SDS011;21790;42.668;23.298;2022-07-22T11:48:54;7.60;;;3.72;;
35675;SDS011;21790;42.668;23.298;2022-07-22T11:51:26;9.35;;;4.10;;
35675;SDS011;21790;42.668;23.298;2022-07-22T11:53:54;9.73;;;3.70;;
35675;SDS011;21790;42.668;23.298;2022-07-22T11:56:19;5.63;;;2.97;;
35675;SDS011;21790;42.668;23.298;2022-07-22T11:58:46;5.13;;;3.55;;
35675;SDS011;21790;42.668;23.298;2022-07-22T12:01:16;5.85;;;2.83;;
35675;SDS011;21790;42.668;23.298;2022-07-22T12:03:48;7.22;;;3.75;;
35675;SDS011;21790;42.668;23.298;2022-07-22T12:06:16;4.70;;;2.75;;
35675;SDS011;21790;42.668;23.298;2022-07-22T12:08:43;6.35;;;2.92;;
35675;SDS011;21790;42.668;23.298;2022-07-22T12:11:11;8.77;;;3.20;;
35675;SDS011;21790;42.668;23.298;2022-07-22T12:13:43;8.52;;;3.17;;
35675;SDS011;21790;42.668;23.298;2022-07-22T12:19:08;8.73;;;3.97;;
35675;SDS011;21790;42.668;23.298;2022-07-22T12:21:36;6.15;;;3.08;;
35675;SDS011;21790;42.668;23.298;2022-07-22T12:26:58;5.95;;;3.30;;
35675;SDS011;21790;42.668;23.298;2022-07-22T12:29:27;8.05;;;3.40;;
35675;SDS011;21790;42.668;23.298;2022-07-22T12:32:08;5.37;;;2.90;;
35675;SDS011;21790;42.668;23.298;2022-07-22T12:34:57;6.43;;;2.88;;
35675;SDS011;21790;42.668;23.298;2022-07-22T12:37:24;13.38;;;3.10;;
35675;SDS011;21790;42.668;23.298;2022-07-22T12:42:20;7.28;;;4.07;;
35675;SDS011;21790;42.668;23.298;2022-07-22T12:50:22;9.20;;;3.22;;
35675;SDS011;21790;42.668;23.298;2022-07-22T12:53:13;5.57;;;3.20;;
35675;SDS011;21790;42.668;23.298;2022-07-22T12:55:45;13.50;;;3.30;;
35675;SDS011;21790;42.668;23.298;2022-07-22T12:58:12;7.00;;;3.13;;
35675;SDS011;21790;42.668;23.298;2022-07-22T13:00:40;8.63;;;3.10;;
35675;SDS011;21790;42.668;23.298;2022-07-22T13:03:07;8.35;;;3.00;;
35675;SDS011;21790;42.668;23.298;2022-07-22T13:05:33;6.10;;;3.17;;
35675;SDS011;21790;42.668;23.298;2022-07-22T13:08:00;5.82;;;3.58;;
35675;SDS011;21790;42.668;23.298;2022-07-22T13:10:27;7.93;;;2.95;;
35675;SDS011;21790;42.668;23.298;2022-07-22T13:12:53;9.82;;;3.15;;
35675;SDS011;21790;42.668;23.298;2022-07-22T13:15:19;6.65;;;3.50;;
35675;SDS011;21790;42.668;23.298;2022-07-22T13:17:45;8.27;;;2.90;;
35675;SDS011;21790;42.668;23.298;2022-07-22T13:20:11;7.20;;;3.25;;
35675;SDS011;21790;42.668;23.298;2022-07-22T13:22:38;6.30;;;3.40;;
35675;SDS011;21790;42.668;23.298;2022-07-22T13:25:05;4.55;;;2.78;;
35675;SDS011;21790;42.668;23.298;2022-07-22T13:27:31;7.35;;;3.00;;
35675;SDS011;21790;42.668;23.298;2022-07-22T13:29:58;6.75;;;3.15;;
35675;SDS011;21790;42.668;23.298;2022-07-22T13:32:23;7.22;;;3.03;;
35675;SDS011;21790;42.668;23.298;2022-07-22T13:34:49;10.52;;;3.60;;
35675;SDS011;21790;42.668;23.298;2022-07-22T13:37:14;7.90;;;2.40;;
35675;SDS011;21790;42.668;23.298;2022-07-22T13:39:40;4.55;;;2.70;;
35675;SDS011;21790;42.668;23.298;2022-07-22T13:42:07;14.27;;;3.75;;
35675;SDS011;21790;42.668;23.298;2022-07-22T13:44:33;9.57;;;4.35;;
35675;SDS011;21790;42.668;23.298;2022-07-22T13:47:02;5.18;;;2.90;;
35675;SDS011;21790;42.668;23.298;2022-07-22T13:49:27;5.25;;;2.78;;
35675;SDS011;21790;42.668;23.298;2022-07-22T13:51:53;7.30;;;2.92;;
35675;SDS011;21790;42.668;23.298;2022-07-22T13:54:19;5.28;;;3.05;;
35675;SDS011;21790;42.668;23.298;2022-07-22T13:56:45;8.73;;;3.05;;
35675;SDS011;21790;42.668;23.298;2022-07-22T13:59:13;3.15;;;2.60;;
35675;SDS011;21790;42.668;23.298;2022-07-22T14:01:39;7.80;;;3.50;;
35675;SDS011;21790;42.668;23.298;2022-07-22T14:04:05;5.82;;;2.97;;
35675;SDS011;21790;42.668;23.298;2022-07-22T14:06:31;15.02;;;3.42;;
35675;SDS011;21790;42.668;23.298;2022-07-22T14:08:57;11.23;;;3.47;;
35675;SDS011;21790;42.668;23.298;2022-07-22T14:11:23;8.35;;;3.38;;
35675;SDS011;21790;42.668;23.298;2022-07-22T14:13:48;7.22;;;3.10;;
35675;SDS011;21790;42.668;23.298;2022-07-22T14:16:14;8.18;;;3.72;;
35675;SDS011;21790;42.668;23.298;2022-07-22T14:18:58;8.18;;;2.75;;
35675;SDS011;21790;42.668;23.298;2022-07-22T14:21:23;8.95;;;3.20;;
35675;SDS011;21790;42.668;23.298;2022-07-22T14:23:49;10.88;;;3.03;;
35675;SDS011;21790;42.668;23.298;2022-07-22T14:26:14;9.55;;;3.38;;
35675;SDS011;21790;42.668;23.298;2022-07-22T14:28:40;9.75;;;3.35;;
35675;SDS011;21790;42.668;23.298;2022-07-22T14:31:05;14.13;;;3.47;;
35675;SDS011;21790;42.668;23.298;2022-07-22T14:33:31;5.43;;;3.40;;
35675;SDS011;21790;42.668;23.298;2022-07-22T14:35:56;7.20;;;2.90;;
35675;SDS011;21790;42.668;23.298;2022-07-22T14:38:22;5.65;;;3.10;;
35675;SDS011;21790;42.668;23.298;2022-07-22T14:40:47;7.80;;;3.25;;
35675;SDS011;21790;42.668;23.298;2022-07-22T14:43:13;8.88;;;2.78;;
35675;SDS011;21790;42.668;23.298;2022-07-22T14:45:38;6.88;;;3.10;;
35675;SDS011;21790;42.668;23.298;2022-07-22T14:48:04;8.80;;;3.00;;
35675;SDS011;21790;42.668;23.298;2022-07-22T14:50:30;4.22;;;2.80;;
35675;SDS011;21790;42.668;23.298;2022-07-22T14:52:55;5.05;;;2.80;;
35675;SDS011;21790;42.668;23.298;2022-07-22T14:55:21;5.50;;;3.22;;
35675;SDS011;21790;42.668;23.298;2022-07-22T14:57:47;9.85;;;3.10;;
35675;SDS011;21790;42.668;23.298;2022-07-22T15:00:12;5.85;;;2.95;;
35675;SDS011;21790;42.668;23.298;2022-07-22T15:02:38;11.18;;;3.65;;
35675;SDS011;21790;42.668;23.298;2022-07-22T15:05:04;8.23;;;2.95;;
35675;SDS011;21790;42.668;23.298;2022-07-22T15:07:29;4.28;;;2.60;;
35675;SDS011;21790;42.668;23.298;2022-07-22T15:09:55;11.50;;;2.90;;
35675;SDS011;21790;42.668;23.298;2022-07-22T15:12:21;5.05;;;3.33;;
35675;SDS011;21790;42.668;23.298;2022-07-22T15:14:47;6.82;;;2.88;;
35675;SDS011;21790;42.668;23.298;2022-07-22T15:17:12;4.68;;;3.03;;
35675;SDS011;21790;42.668;23.298;2022-07-22T15:19:38;8.95;;;3.20;;
35675;SDS011;21790;42.668;23.298;2022-07-22T15:22:06;5.32;;;3.13;;
35675;SDS011;21790;42.668;23.298;2022-07-22T15:24:34;7.63;;;3.10;;
35675;SDS011;21790;42.668;23.298;2022-07-22T15:27:00;4.22;;;2.92;;
35675;SDS011;21790;42.668;23.298;2022-07-22T15:29:25;5.03;;;2.60;;
35675;SDS011;21790;42.668;23.298;2022-07-22T15:31:51;6.40;;;2.97;;
35675;SDS011;21790;42.668;23.298;2022-07-22T15:34:17;6.75;;;2.70;;
35675;SDS011;21790;42.668;23.298;2022-07-22T15:36:43;9.00;;;2.85;;
35675;SDS011;21790;42.668;23.298;2022-07-22T15:39:08;9.85;;;3.20;;
35675;SDS011;21790;42.668;23.298;2022-07-22T15:41:34;4.10;;;2.40;;
35675;SDS011;21790;42.668;23.298;2022-07-22T15:44:04;7.38;;;2.90;;
35675;SDS011;21790;42.668;23.298;2022-07-22T15:46:30;7.60;;;2.92;;
35675;SDS011;21790;42.668;23.298;2022-07-22T15:48:56;7.93;;;2.50;;
35675;SDS011;21790;42.668;23.298;2022-07-22T15:51:22;6.00;;;2.95;;
35675;SDS011;21790;42.668;23.298;2022-07-22T15:53:47;5.72;;;2.50;;
35675;SDS011;21790;42.668;23.298;2022-07-22T15:56:13;9.73;;;3.40;;
35675;SDS011;21790;42.668;23.298;2022-07-22T15:58:39;6.57;;;3.10;;
35675;SDS011;21790;42.668;23.298;2022-07-22T16:01:23;8.93;;;3.05;;
35675;SDS011;21790;42.668;23.298;2022-07-22T16:03:48;9.70;;;3.10;;
35675;SDS011;21790;42.668;23.298;2022-07-22T16:06:14;4.15;;;2.33;;
35675;SDS011;21790;42.668;23.298;2022-07-22T16:08:39;5.38;;;2.72;;
35675;SDS011;21790;42.668;23.298;2022-07-22T16:11:05;6.70;;;2.72;;
35675;SDS011;21790;42.668;23.298;2022-07-22T16:13:31;11.70;;;3.17;;
35675;SDS011;21790;42.668;23.298;2022-07-22T16:15:56;3.63;;;2.53;;
35675;SDS011;21790;42.668;23.298;2022-07-22T16:18:22;7.68;;;2.85;;
35675;SDS011;21790;42.668;23.298;2022-07-22T16:20:47;12.52;;;3.10;;
35675;SDS011;21790;42.668;23.298;2022-07-22T16:23:13;7.07;;;2.47;;
35675;SDS011;21790;42.668;23.298;2022-07-22T16:25:38;5.88;;;2.80;;
35675;SDS011;21790;42.668;23.298;2022-07-22T16:28:04;16.15;;;3.40;;
35675;SDS011;21790;42.668;23.298;2022-07-22T16:30:30;7.13;;;2.92;;
35675;SDS011;21790;42.668;23.298;2022-07-22T16:32:55;5.53;;;2.83;;
35675;SDS011;21790;42.668;23.298;2022-07-22T16:35:21;12.38;;;3.05;;
35675;SDS011;21790;42.668;23.298;2022-07-22T16:37:47;5.90;;;2.92;;
35675;SDS011;21790;42.668;23.298;2022-07-22T16:40:13;9.77;;;2.90;;
35675;SDS011;21790;42.668;23.298;2022-07-22T16:42:40;11.27;;;2.88;;
35675;SDS011;21790;42.668;23.298;2022-07-22T16:45:06;5.35;;;2.88;;
35675;SDS011;21790;42.668;23.298;2022-07-22T16:47:32;8.27;;;3.30;;
35675;SDS011;21790;42.668;23.298;2022-07-22T16:49:57;5.68;;;3.45;;
35675;SDS011;21790;42.668;23.298;2022-07-22T16:52:23;7.78;;;2.53;;
35675;SDS011;21790;42.668;23.298;2022-07-22T16:54:52;7.03;;;2.80;;
35675;SDS011;21790;42.668;23.298;2022-07-22T16:57:20;5.47;;;2.60;;
35675;SDS011;21790;42.668;23.298;2022-07-22T16:59:46;7.55;;;3.17;;
35675;SDS011;21790;42.668;23.298;2022-07-22T17:02:11;4.22;;;2.67;;
35675;SDS011;21790;42.668;23.298;2022-07-22T17:04:37;7.90;;;2.95;;
35675;SDS011;21790;42.668;23.298;2022-07-22T17:07:03;7.28;;;3.60;;
35675;SDS011;21790;42.668;23.298;2022-07-22T17:09:29;7.18;;;3.10;;
35675;SDS011;21790;42.668;23.298;2022-07-22T17:11:54;5.85;;;3.17;;
35675;SDS011;21790;42.668;23.298;2022-07-22T17:14:20;8.68;;;3.00;;
35675;SDS011;21790;42.668;23.298;2022-07-22T17:16:45;6.30;;;2.95;;
35675;SDS011;21790;42.668;23.298;2022-07-22T17:19:11;7.30;;;3.38;;
35675;SDS011;21790;42.668;23.298;2022-07-22T17:21:36;16.38;;;3.03;;
35675;SDS011;21790;42.668;23.298;2022-07-22T17:24:02;7.25;;;3.45;;
35675;SDS011;21790;42.668;23.298;2022-07-22T17:26:27;11.77;;;2.83;;
35675;SDS011;21790;42.668;23.298;2022-07-22T17:28:53;7.03;;;3.45;;
35675;SDS011;21790;42.668;23.298;2022-07-22T17:31:19;8.35;;;3.10;;
35675;SDS011;21790;42.668;23.298;2022-07-22T17:33:47;9.50;;;3.17;;
35675;SDS011;21790;42.668;23.298;2022-07-22T17:36:13;5.68;;;2.97;;
35675;SDS011;21790;42.668;23.298;2022-07-22T17:38:39;5.85;;;3.58;;
35675;SDS011;21790;42.668;23.298;2022-07-22T17:41:04;7.57;;;3.92;;
35675;SDS011;21790;42.668;23.298;2022-07-22T17:43:30;7.63;;;3.20;;
35675;SDS011;21790;42.668;23.298;2022-07-22T17:45:55;8.40;;;3.50;;
35675;SDS011;21790;42.668;23.298;2022-07-22T17:48:21;8.35;;;3.67;;
35675;SDS011;21790;42.668;23.298;2022-07-22T17:50:46;8.48;;;3.05;;
35675;SDS011;21790;42.668;23.298;2022-07-22T17:53:12;13.63;;;3.30;;
35675;SDS011;21790;42.668;23.298;2022-07-22T17:55:37;7.15;;;3.10;;
35675;SDS011;21790;42.668;23.298;2022-07-22T17:58:03;4.18;;;3.15;;
35675;SDS011;21790;42.668;23.298;2022-07-22T18:00:28;3.95;;;2.83;;
35675;SDS011;21790;42.668;23.298;2022-07-22T18:02:59;7.53;;;2.53;;
35675;SDS011;21790;42.668;23.298;2022-07-22T18:05:26;6.88;;;3.20;;
35675;SDS011;21790;42.668;23.298;2022-07-22T18:07:52;6.35;;;3.30;;
35675;SDS011;21790;42.668;23.298;2022-07-22T18:10:18;7.70;;;3.17;;
35675;SDS011;21790;42.668;23.298;2022-07-22T18:12:44;6.78;;;3.00;;
35675;SDS011;21790;42.668;23.298;2022-07-22T18:15:11;8.93;;;3.42;;
35675;SDS011;21790;42.668;23.298;2022-07-22T18:17:36;9.25;;;3.72;;
35675;SDS011;21790;42.668;23.298;2022-07-22T18:20:02;12.40;;;3.95;;
35675;SDS011;21790;42.668;23.298;2022-07-22T18:22:29;10.05;;;2.85;;
35675;SDS011;21790;42.668;23.298;2022-07-22T18:24:55;7.05;;;3.40;;
35675;SDS011;21790;42.668;23.298;2022-07-22T18:27:21;5.40;;;3.42;;
35675;SDS011;21790;42.668;23.298;2022-07-22T18:29:47;7.82;;;2.88;;
35675;SDS011;21790;42.668;23.298;2022-07-22T18:32:12;7.22;;;3.25;;
35675;SDS011;21790;42.668;23.298;2022-07-22T18:34:38;10.18;;;4.05;;
35675;SDS011;21790;42.668;23.298;2022-07-22T18:37:05;12.88;;;4.00;;
35675;SDS011;21790;42.668;23.298;2022-07-22T18:39:30;9.55;;;3.58;;
35675;SDS011;21790;42.668;23.298;2022-07-22T18:41:56;14.32;;;3.60;;
35675;SDS011;21790;42.668;23.298;2022-07-22T18:44:21;11.73;;;3.58;;
35675;SDS011;21790;42.668;23.298;2022-07-22T18:46:47;10.27;;;3.72;;
35675;SDS011;21790;42.668;23.298;2022-07-22T18:49:13;6.60;;;3.30;;
35675;SDS011;21790;42.668;23.298;2022-07-22T18:51:38;12.00;;;3.85;;
35675;SDS011;21790;42.668;23.298;2022-07-22T18:54:04;10.60;;;3.58;;
35675;SDS011;21790;42.668;23.298;2022-07-22T18:56:32;6.53;;;3.05;;
35675;SDS011;21790;42.668;23.298;2022-07-22T18:58:57;9.18;;;3.67;;
35675;SDS011;21790;42.668;23.298;2022-07-22T19:01:23;8.52;;;3.33;;
35675;SDS011;21790;42.668;23.298;2022-07-22T19:03:49;8.95;;;3.70;;
35675;SDS011;21790;42.668;23.298;2022-07-22T19:06:15;7.00;;;3.92;;
35675;SDS011;21790;42.668;23.298;2022-07-22T19:08:41;6.57;;;3.85;;
35675;SDS011;21790;42.668;23.298;2022-07-22T19:11:07;8.70;;;3.67;;
35675;SDS011;21790;42.668;23.298;2022-07-22T19:13:32;13.00;;;3.75;;
35675;SDS011;21790;42.668;23.298;2022-07-22T19:15:58;7.00;;;3.90;;
35675;SDS011;21790;42.668;23.298;2022-07-22T19:18:23;4.57;;;3.20;;
35675;SDS011;21790;42.668;23.298;2022-07-22T19:20:51;7.72;;;3.53;;
35675;SDS011;21790;42.668;23.298;2022-07-22T19:23:17;8.80;;;4.60;;
35675;SDS011;21790;42.668;23.298;2022-07-22T19:25:45;8.88;;;3.95;;
35675;SDS011;21790;42.668;23.298;2022-07-22T19:28:13;12.45;;;4.07;;
35675;SDS011;21790;42.668;23.298;2022-07-22T19:30:41;9.18;;;3.95;;
35675;SDS011;21790;42.668;23.298;2022-07-22T19:33:09;10.73;;;3.75;;
35675;SDS011;21790;42.668;23.298;2022-07-22T19:35:35;8.05;;;4.13;;
35675;SDS011;21790;42.668;23.298;2022-07-22T19:38:01;7.75;;;4.57;;
35675;SDS011;21790;42.668;23.298;2022-07-22T19:40:28;9.88;;;4.35;;
35675;SDS011;21790;42.668;23.298;2022-07-22T19:42:55;7.28;;;3.72;;
35675;SDS011;21790;42.668;23.298;2022-07-22T19:45:21;10.73;;;4.20;;
35675;SDS011;21790;42.668;23.298;2022-07-22T19:47:47;7.60;;;4.10;;
35675;SDS011;21790;42.668;23.298;2022-07-22T19:50:13;11.27;;;4.13;;
35675;SDS011;21790;42.668;23.298;2022-07-22T19:52:41;5.78;;;3.97;;
35675;SDS011;21790;42.668;23.298;2022-07-22T19:55:07;7.10;;;3.67;;
35675;SDS011;21790;42.668;23.298;2022-07-22T19:57:34;9.23;;;4.32;;
35675;SDS011;21790;42.668;23.298;2022-07-22T20:00:08;13.20;;;5.10;;
35675;SDS011;21790;42.668;23.298;2022-07-22T20:02:35;13.27;;;5.57;;
35675;SDS011;21790;42.668;23.298;2022-07-22T20:05:02;10.65;;;4.85;;
35675;SDS011;21790;42.668;23.298;2022-07-22T20:07:27;13.27;;;4.80;;
35675;SDS011;21790;42.668;23.298;2022-07-22T20:12:22;10.63;;;4.32;;
35675;SDS011;21790;42.668;23.298;2022-07-22T20:14:48;10.38;;;4.22;;
35675;SDS011;21790;42.668;23.298;2022-07-22T20:17:14;7.15;;;4.30;;
35675;SDS011;21790;42.668;23.298;2022-07-22T20:19:40;12.30;;;4.38;;
35675;SDS011;21790;42.668;23.298;2022-07-22T20:22:06;9.60;;;4.50;;
35675;SDS011;21790;42.668;23.298;2022-07-22T20:24:33;7.72;;;4.38;;
35675;SDS011;21790;42.668;23.298;2022-07-22T20:26:59;9.40;;;4.25;;
35675;SDS011;21790;42.668;23.298;2022-07-22T20:32:13;12.00;;;4.10;;
35675;SDS011;21790;42.668;23.298;2022-07-22T20:37:10;8.52;;;4.40;;
35675;SDS011;21790;42.668;23.298;2022-07-22T20:39:48;20.33;;;6.45;;
35675;SDS011;21790;42.668;23.298;2022-07-22T20:42:14;17.83;;;5.10;;
35675;SDS011;21790;42.668;23.298;2022-07-22T20:44:42;17.58;;;5.90;;
35675;SDS011;21790;42.668;23.298;2022-07-22T20:47:07;29.98;;;5.65;;
35675;SDS011;21790;42.668;23.298;2022-07-22T20:49:34;12.77;;;4.68;;
35675;SDS011;21790;42.668;23.298;2022-07-22T20:52:00;19.73;;;5.13;;
35675;SDS011;21790;42.668;23.298;2022-07-22T20:54:31;22.03;;;5.07;;
35675;SDS011;21790;42.668;23.298;2022-07-22T20:56:56;20.05;;;5.18;;
35675;SDS011;21790;42.668;23.298;2022-07-22T20:59:22;15.18;;;5.50;;
35675;SDS011;21790;42.668;23.298;2022-07-22T21:01:48;12.40;;;4.88;;
35675;SDS011;21790;42.668;23.298;2022-07-22T21:04:13;13.20;;;5.65;;
35675;SDS011;21790;42.668;23.298;2022-07-22T21:06:40;11.82;;;5.60;;
35675;SDS011;21790;42.668;23.298;2022-07-22T21:09:07;15.20;;;5.10;;
35675;SDS011;21790;42.668;23.298;2022-07-22T21:11:33;19.15;;;5.15;;
35675;SDS011;21790;42.668;23.298;2022-07-22T21:14:00;13.35;;;4.45;;
35675;SDS011;21790;42.668;23.298;2022-07-22T21:16:26;15.52;;;5.25;;
35675;SDS011;21790;42.668;23.298;2022-07-22T21:18:52;15.10;;;5.28;;
35675;SDS011;21790;42.668;23.298;2022-07-22T21:21:18;9.43;;;5.40;;
35675;SDS011;21790;42.668;23.298;2022-07-22T21:23:45;11.20;;;5.70;;
35675;SDS011;21790;42.668;23.298;2022-07-22T21:26:11;18.48;;;5.13;;
35675;SDS011;21790;42.668;23.298;2022-07-22T21:28:37;11.70;;;4.85;;
35675;SDS011;21790;42.668;23.298;2022-07-22T21:31:04;14.82;;;5.88;;
35675;SDS011;21790;42.668;23.298;2022-07-22T21:33:30;12.55;;;4.93;;
35675;SDS011;21790;42.668;23.298;2022-07-22T21:35:57;12.45;;;6.03;;
35675;SDS011;21790;42.668;23.298;2022-07-22T21:38:23;17.27;;;5.15;;
35675;SDS011;21790;42.668;23.298;2022-07-22T21:40:49;11.60;;;4.97;;
35675;SDS011;21790;42.668;23.298;2022-07-22T21:43:15;14.13;;;5.32;;
35675;SDS011;21790;42.668;23.298;2022-07-22T21:45:41;10.77;;;5.20;;
35675;SDS011;21790;42.668;23.298;2022-07-22T21:48:14;10.68;;;5.35;;
35675;SDS011;21790;42.668;23.298;2022-07-22T21:50:40;13.43;;;5.30;;
35675;SDS011;21790;42.668;23.298;2022-07-22T21:53:05;12.73;;;5.70;;
35675;SDS011;21790;42.668;23.298;2022-07-22T21:55:31;9.98;;;5.18;;
35675;SDS011;21790;42.668;23.298;2022-07-22T21:57:57;11.35;;;4.70;;
35675;SDS011;21790;42.668;23.298;2022-07-22T22:00:23;11.82;;;4.63;;
35675;SDS011;21790;42.668;23.298;2022-07-22T22:02:48;12.57;;;5.40;;
35675;SDS011;21790;42.668;23.298;2022-07-22T22:05:14;13.20;;;4.70;;
35675;SDS011;21790;42.668;23.298;2022-07-22T22:07:41;10.90;;;4.72;;
35675;SDS011;21790;42.668;23.298;2022-07-22T22:15:17;10.57;;;4.63;;
35675;SDS011;21790;42.668;23.298;2022-07-22T22:17:46;8.75;;;4.60;;
35675;SDS011;21790;42.668;23.298;2022-07-22T22:20:13;10.05;;;5.35;;
35675;SDS011;21790;42.668;23.298;2022-07-22T22:25:14;8.52;;;4.97;;
35675;SDS011;21790;42.668;23.298;2022-07-22T22:27:40;9.00;;;4.40;;
35675;SDS011;21790;42.668;23.298;2022-07-22T22:30:06;8.32;;;5.45;;
35675;SDS011;21790;42.668;23.298;2022-07-22T22:32:33;8.95;;;4.65;;
35675;SDS011;21790;42.668;23.298;2022-07-22T22:34:59;9.75;;;5.30;;